Bodega Marine Reserve, California Weather observations

Data are for 10 minute period ending at time listed.
 Day   Time   Solar   Ave.   Ave.  Ave.  Vector  Max.   Baro.   Total    
  of    of     Rad.   Air    Rel.  Wind   Wind   Wind  Press.  Precip.   
Year   Day            Temp.  Hum.  Speed  Dir.   Gust                    
2014   (PST)  Kw/m2    F      %     mph   deg.    mph    mb.     in.     
-------------------------------------------------------------------------
 297    4:10   0.00   55.9    97    9.1    90    11.2   1010.8    0.00 
 297    4:20   0.00   55.7    97    8.2    85    11.6   1010.8    0.00 
 297    4:30   0.00   55.4    97    8.0    88    10.6   1010.8    0.01 
 297    4:40   0.00   55.3    96    8.5    89    11.0   1010.8    0.00 
 297    4:50   0.00   55.3    96    7.8    86    10.4   1010.8    0.00 
 297    5:00   0.00   55.5    96    8.8    85    12.0   1010.8    0.00 
 297    5:10   0.00   55.6    96    9.6    90    12.6   1010.8    0.00 
 297    5:20   0.00   55.7    96    5.5   105     9.2   1010.8    0.00 
 297    5:30   0.00   55.8    95    6.8   101     9.6   1010.8    0.00 
 297    5:40   0.00   56.0    95    6.4   106     9.4   1010.8    0.00 
 297    5:50   0.00   56.1    94    5.9   104     9.6   1010.8    0.00 
 297    6:00   0.00   55.7    94    7.0    94     9.0   1010.8    0.00 
 297    6:10   0.00   55.3    94    7.2    95    10.4   1010.8    0.00 
 297    6:20   0.00   55.5    94    8.7    96    11.5   1010.5    0.00 
 297    6:30   0.00   55.7    93    8.3    97    12.6   1010.5    0.00 
 297    6:40   0.01   55.8    92    7.1   101    12.3   1010.5    0.00 
 297    6:50   0.02   55.9    92    8.7    99    11.6   1010.5    0.00 
 297    7:00   0.04   56.5    90    6.3   106    12.0   1010.8    0.00 
 297    7:10   0.06   56.8    90    5.9   108    10.4   1010.8    0.00 
 297    7:20   0.08   57.1    88    7.6   102    12.1   1010.8    0.00 
 297    7:30   0.11   57.5    87    8.3   100    12.6   1011.2    0.00 
 297    7:40   0.14   57.7    86    8.9    99    11.7   1011.2    0.00 
 297    7:50   0.16   58.2    85    8.2    99    10.6   1011.2    0.00 
 297    8:00   0.19   58.9    84    7.0   100     9.4   1011.5    0.00 
 297    8:10   0.21   59.4    83    8.9    98    11.1   1011.5    0.00 
 297    8:20   0.24   59.8    82    9.0    98    12.0   1011.5    0.00 
 297    8:30   0.27   60.1    81    9.9    96    12.5   1011.5    0.00 
 297    8:40   0.29   60.7    80    8.3    98    12.3   1011.5    0.00 
 297    8:50   0.32   61.9    78    5.7   108    11.6   1011.5    0.00 
 297    9:00   0.35   62.6    76    5.9   112    12.9   1011.5    0.00 
 297    9:10   0.37   63.3    74    8.7   102    14.2   1011.5    0.00 
 297    9:20   0.40   63.9    73    8.9    97    14.0   1011.5    0.00 
 297    9:30   0.42   64.4    71   10.1    95    14.4   1011.5    0.00 
 297    9:40   0.44   64.9    71   10.6    96    14.2   1011.9    0.00 
 297    9:50   0.46   66.0    69    6.7   117    12.1   1011.9    0.00 
 297   10:00   0.48   65.5    71    7.5   132    10.7   1011.9    0.00 
 297   10:10   0.50   66.0    70    9.7   147    13.1   1011.9    0.00 
 297   10:20   0.51   66.2    69    8.6   160    11.6   1011.9    0.00 
 297   10:30   0.49   65.4    74    8.0   172    11.8   1011.9    0.00 
 297   10:40   0.55   64.8    77    9.8   176    15.1   1011.9    0.00 
 297   10:50   0.61   64.7    77   10.4   173    15.5   1011.9    0.00 
 297   11:00   0.61   65.5    75   11.2   168    16.4   1011.9    0.00 
 297   11:10   0.58   65.4    75   12.4   161    19.2   1011.9    0.00 
 297   11:20   0.58   65.6    75   12.6   164    17.2   1011.9    0.00 
 297   11:30   0.47   64.8    79   11.2   157    15.3   1011.9    0.00 
 297   11:40   0.59   65.0    80   11.0   155    16.7   1011.9    0.00 
 297   11:50   0.61   65.5    79   11.3   159    17.2   1011.5    0.00 
 297   12:00   0.61   65.9    78   10.4   157    17.0   1011.5    0.00 
 297   12:10   0.60   66.0    78    9.8   157    14.7   1011.5    0.00 
 297   12:20   0.60   66.7    76    9.0   156    15.1   1011.2    0.00 
 297   12:30   0.60   66.0    76   11.3   149    16.0   1011.2    0.00 
 297   12:40   0.60   66.1    76   11.2   141    14.8   1010.8    0.00 
 297   12:50   0.54   66.4    75   10.6   147    14.9   1010.8    0.00 
 297   13:00   0.48   66.1    77    9.3   146    14.0   1010.8    0.00 
 297   13:10   0.48   65.7    78   10.5   148    15.0   1010.8    0.00 
 297   13:20   0.54   66.2    77    9.5   141    13.0   1010.5    0.00 
 297   13:30   0.43   65.9    78    9.2   146    13.6   1010.5    0.00 
 297   13:40   0.34   66.0    76    8.9   161    12.9   1010.5    0.00 
 297   13:50   0.38   66.0    76   10.0   154    13.2   1010.5    0.00 
 297   14:00   0.28   65.5    77   10.8   143    14.8   1010.5    0.00 
 297   14:10   0.34   65.1    78   10.5   143    13.7   1010.5    0.00 
 297   14:20   0.33   65.0    79   10.8   146    14.7   1010.5    0.00 
 297   14:30   0.31   65.2    78   10.2   156    15.0   1010.5    0.00 
 297   14:40   0.30   65.5    77    9.6   155    15.1   1010.5    0.00 
 297   14:50   0.15   64.7    79    8.6   150    12.3   1010.5    0.00 
 297   15:00   0.17   64.1    80    8.7   141    12.1   1010.2    0.00 
 297   15:10   0.20   64.3    80    8.4   137    11.4   1010.2    0.00 
 297   15:20   0.26   64.5    80    9.2   136    11.7   1010.2    0.00 
 297   15:30   0.11   64.0    81    7.6   136    11.4   1009.8    0.00 
 297   15:40   0.17   63.9    82    7.5   134    10.1   1009.8    0.00 
 297   15:50   0.27   64.5    80    9.0   130    12.3   1009.5    0.00 
 297   16:00   0.13   63.9    81    9.7   139    12.1   1009.5    0.00 
 297   16:10   0.20   64.0    81    9.1   139    12.2   1009.1    0.00 
 297   16:20   0.14   64.0    80    9.6   141    12.9   1009.1    0.00 
 297   16:30   0.15   63.7    81   10.0   140    13.4   1009.1    0.00 
 297   16:40   0.08   63.5    82   10.0   140    14.3   1009.1    0.00 
 297   16:50   0.05   63.1    82    9.4   144    13.0   1009.1    0.00 
 297   17:00   0.03   63.0    82   10.0   148    14.2   1008.8    0.00 
 297   17:10   0.02   62.5    83   10.3   145    14.4   1008.8    0.00 
 297   17:20   0.00   62.5    84   10.9   144    15.1   1008.8    0.00 
 297   17:30   0.00   62.5    84   11.8   143    15.3   1008.8    0.00 
 297   17:40   0.00   62.3    84   13.2   140    19.4   1008.8    0.00 
 297   17:50   0.00   62.1    85   12.5   137    17.7   1008.8    0.00 
 297   18:00   0.00   62.0    86   13.3   136    17.8   1008.8    0.00 
 297   18:10   0.00   62.1    86   13.6   136    18.5   1008.8    0.00 
 297   18:20   0.00   62.0    86   13.0   136    17.5   1008.8    0.00 
 297   18:30   0.00   62.0    86   12.5   137    16.6   1008.8    0.00 
 297   18:40   0.00   62.1    86   12.0   138    17.1   1008.8    0.00 
 297   18:50   0.00   62.1    86   12.7   138    17.0   1008.8    0.00 
 297   19:00   0.00   62.2    86   12.7   140    17.2   1008.8    0.00 
 297   19:10   0.00   62.1    87   14.3   141    19.8   1008.8    0.00 
 297   19:20   0.00   62.1    87   13.9   142    19.1   1008.8    0.00 
 297   19:30   0.00   62.2    87   13.7   140    20.2   1008.8    0.00 
 297   19:40   0.00   62.2    87   14.9   139    19.7   1008.8    0.00 
 297   19:50   0.00   62.2    88   13.6   143    18.1   1008.8    0.00 
 297   20:00   0.00   62.1    87   14.2   145    19.6   1009.1    0.00 
 297   20:10   0.00   62.2    87   13.2   144    18.9   1009.1    0.00 
 297   20:20   0.00   62.2    88   15.7   142    20.0   1008.8    0.00 
 297   20:30   0.00   62.1    88   16.1   144    20.6   1008.8    0.00 
 297   20:40   0.00   62.1    88   15.9   144    23.6   1008.8    0.00 
 297   20:50   0.00   62.1    88   15.8   143    22.2   1009.1    0.00 
 297   21:00   0.00   62.0    88   15.7   147    21.5   1009.1    0.00 
 297   21:10   0.00   62.1    88   15.0   150    22.2   1009.5    0.00 
 297   21:20   0.00   62.1    88   14.8   147    21.7   1009.5    0.00 
 297   21:30   0.00   62.1    88   16.6   150    22.9   1009.5    0.00 
 297   21:40   0.00   62.0    88   16.9   149    23.4   1009.5    0.00 
 297   21:50   0.00   62.0    88   18.5   150    24.8   1009.5    0.00 
 297   22:00   0.00   62.0    88   17.6   149    25.2   1009.1    0.00 
 297   22:10   0.00   62.0    88   19.5   144    25.9   1009.1    0.00 
 297   22:20   0.00   61.8    89   19.4   146    26.5   1008.8    0.00 
 297   22:30   0.00   62.0    89   18.5   146    25.4   1009.1    0.00 
 297   22:40   0.00   62.0    88   17.8   148    25.1   1009.1    0.00 
 297   22:50   0.00   62.0    88   18.8   146    27.0   1009.1    0.00 
 297   23:00   0.00   62.1    88   19.0   146    27.0   1009.1    0.00 
 297   23:10   0.00   62.1    88   18.1   144    25.4   1009.1    0.00 
 297   23:20   0.00   62.1    88   18.9   144    25.1   1008.8    0.00 
 297   23:30   0.00   62.2    88   19.8   145    27.9   1008.8    0.00 
 297   23:40   0.00   62.2    88   20.7   143    28.2   1008.8    0.00 
 297   23:50   0.00   62.3    88   20.2   144    26.7   1008.8    0.00 
 298    0:00   0.00   62.2    88   19.0   145    28.8   1008.8    0.00 
 298    0:10   0.00   62.1    89   19.1   147    27.0   1008.5    0.00 
 298    0:20   0.00   62.2    88   18.8   150    26.4   1008.8    0.00 
 298    0:30   0.00   62.1    88   18.5   148    24.7   1008.8    0.00 
 298    0:40   0.00   62.0    89   19.2   148    26.1   1008.5    0.00 
 298    0:50   0.00   61.7    90   19.1   147    29.1   1008.5    0.00 
 298    1:00   0.00   61.9    89   20.2   150    26.8   1008.5    0.00 
 298    1:10   0.00   62.0    89   18.5   148    26.5   1008.5    0.00 
 298    1:20   0.00   62.0    89   21.3   151    28.5   1008.5    0.00 
 298    1:30   0.00   61.9    90   20.4   153    29.1   1008.5    0.00 
 298    1:40   0.00   61.2    92   16.8   184    26.2   1008.8    0.07 
 298    1:50   0.00   60.1    93   10.1   212    17.9   1009.1    0.02 
 298    2:00   0.00   59.8    94    7.8   197    15.7   1009.1    0.01 
 298    2:10   0.00   59.4    95    9.7   196    18.7   1009.1    0.01 
 298    2:20   0.00   59.3    95    7.8   184    15.5   1009.1    0.01 
 298    2:30   0.00   59.2    95    9.8   187    16.3   1008.8    0.00 
 298    2:40   0.00   59.3    95   10.1   190    18.4   1008.8    0.01 
 298    2:50   0.00   59.3    95    8.2   184    13.2   1008.8    0.01 
 298    3:00   0.00   59.2    95    9.1   180    18.6   1009.1    0.01 
 298    3:10   0.00   59.2    95    8.4   181    14.2   1009.1    0.03 
 298    3:20   0.00   59.3    95   10.0   184    16.4   1009.1    0.03 
 298    3:30   0.00   59.1    95   10.0   172    16.3   1008.8    0.00 
 298    3:40   0.00   58.9    94   10.3   164    17.0   1008.8    0.01 
 298    3:50   0.00   58.8    92   12.1   158    18.5   1008.8    0.00 
 298    4:00   0.00   58.8    92   11.3   156    17.2   1008.8    0.01 

Return to Bodega Marine Reserve graphs page.


Western Regional Climate Center,wrcc@dri.edu